Lammy — PBRE — position and weather

sailwx.info

Track history (hours):
 
Tides and Currents Weather Stations Pressure Air Temp Water Temp Dewpoint Dewpoint Depression Visibility Wind Speed Wind Dir Waves Ship Positions

Lammy

Last reported at 2018-Apr-24 12:21 UTC. Time now 2018-Apr-24 12:41 UTC.
Position N 56°20' E 016°54'.

Length 95 m; draft 4.5 m.

Type: Cargo ship. MMSI: 245391000.

Date/timePositionNaut miles runAvg speedWind from/ knotsBaromVisibWave heightAir tempDewpointWater temp
2018-Apr-24 12:21N 56°20' E 016°54'410.5
2018-Apr-24 12:00N 56°16' E 016°53'510.5
2018-Apr-24 11:29N 56°11' E 016°51'510.4
2018-Apr-24 11:00N 56°06' E 016°49'510.3
2018-Apr-24 10:30N 56°03' E 016°42'510.5
2018-Apr-24 10:01N 55°60' E 016°33'510.5
2018-Apr-24 09:31N 55°57' E 016°25'510.4
2018-Apr-24 09:01N 55°55' E 016°17'510.4
2018-Apr-24 08:30N 55°52' E 016°09'510.5
2018-Apr-24 08:00N 55°49' E 016°02'510.3
2018-Apr-24 07:30N 55°46' E 015°54'510.4
2018-Apr-24 07:00N 55°44' E 015°46'510.5
2018-Apr-24 06:30N 55°41' E 015°38'510.3
2018-Apr-24 06:00N 55°39' E 015°30'510.3
2018-Apr-24 05:30N 55°36' E 015°22'510.3
2018-Apr-24 05:00N 55°34' E 015°14'510.4
2018-Apr-24 04:30N 55°31' E 015°06'510.3
2018-Apr-24 03:59N 55°28' E 014°58'510.2
2018-Apr-24 03:30N 55°26' E 014°50'510.5
2018-Apr-24 03:00N 55°23' E 014°42'510.4
2018-Apr-24 02:30N 55°20' E 014°36'510.4
2018-Apr-24 02:00N 55°16' E 014°30'710.4
2018-Apr-24 01:22N 55°11' E 014°22'410.5
2018-Apr-24 00:58N 55°07' E 014°17'510.5
2018-Apr-24 00:27N 55°03' E 014°11'5010.3
2018-Apr-23 19:37N 54°42' E 012°53'110.4
2018-Apr-23 19:29N 54°41' E 012°51'510.5
2018-Apr-23 19:00N 54°39' E 012°43'2010.3
2018-Apr-23 17:00N 54°28' E 012°14'510.0
2018-Apr-23 16:30N 54°25' E 012°07'1010.7
2018-Apr-23 15:33N 54°25' E 011°49'110.7
2018-Apr-23 15:29N 54°25' E 011°48'610.6
2018-Apr-23 14:56N 54°27' E 011°39'510.8
2018-Apr-23 14:30N 54°29' E 011°32'510.4
2018-Apr-23 14:00N 54°31' E 011°23'510.2
2018-Apr-23 13:30N 54°33' E 011°16'510.0
2018-Apr-23 13:00N 54°35' E 011°07'510.4
2018-Apr-23 12:30N 54°34' E 010°59'510.5
2018-Apr-23 12:00N 54°34' E 010°49'510.5
2018-Apr-23 11:30N 54°34' E 010°40'510.5
2018-Apr-23 11:00N 54°33' E 010°32'22 6.0
2018-Apr-23 07:16N 54°21' E 009°59'3 7.9
2018-Apr-23 06:52N 54°21' E 009°54'3 8.2
2018-Apr-23 06:28N 54°22' E 009°48'4 8.3
2018-Apr-23 06:00N 54°19' E 009°43'4 7.5
2018-Apr-23 05:30N 54°17' E 009°38'4 7.1
2018-Apr-23 05:00N 54°13' E 009°36'4 8.2
2018-Apr-23 04:30N 54°11' E 009°30'4 8.5
2018-Apr-23 04:00N 54°09' E 009°23'4 7.6
2018-Apr-23 03:26N 54°06' E 009°20'3 7.9
2018-Apr-23 03:00N 54°03' E 009°18'3 6.0
2018-Apr-23 02:30N 53°60' E 009°17'4 7.5
2018-Apr-23 02:00N 53°57' E 009°13'4 7.4
2018-Apr-23 01:30N 53°54' E 009°09'0 0.6
2018-Apr-23 01:00N 53°54' E 009°09'0 0.1
2018-Apr-23 00:30N 53°54' E 009°09'1 2.6
2018-Apr-23 00:00N 53°53' E 009°07'1 1.1
2018-Apr-22 23:30N 53°53' E 009°06'1 2.7
2018-Apr-22 23:00N 53°53' E 009°04'3 6.9
2018-Apr-22 22:30N 53°51' E 008°58'4 7.7
2018-Apr-22 22:00N 53°50' E 008°52'3 6.9
2018-Apr-22 21:30N 53°51' E 008°46'3 6.7
2018-Apr-22 21:00N 53°53' E 008°42'3 6.9
2018-Apr-22 20:30N 53°56' E 008°39'4 7.6
2018-Apr-22 20:00N 53°58' E 008°34'5 8.9
2018-Apr-22 19:28N 53°59' E 008°25'11511.5
2018-Apr-22 09:30N 53°31' E 005°17'612.5
2018-Apr-22 09:00N 53°29' E 005°07'612.7
2018-Apr-22 08:30N 53°27' E 004°57'612.4
2018-Apr-22 08:00N 53°24' E 004°48'611.9
2018-Apr-22 07:30N 53°20' E 004°41'712.4
2018-Apr-22 06:58N 53°14' E 004°35'612.0
2018-Apr-22 06:30N 53°09' E 004°30'611.6
2018-Apr-22 05:58N 53°04' E 004°25'611.3
2018-Apr-22 05:26N 52°59' E 004°20'611.0
2018-Apr-22 04:54N 52°54' E 004°16'1010.6
2018-Apr-22 03:59N 52°46' E 004°06'610.5
2018-Apr-22 03:27N 52°42' E 003°59'2910.2
2018-Apr-22 00:35N 52°25' E 003°20'1 9.9
2018-Apr-22 00:30N 52°25' E 003°19'510.1
2018-Apr-22 00:00N 52°22' E 003°12'510.3
2018-Apr-21 23:29N 52°18' E 003°05'510.5
2018-Apr-21 22:58N 52°15' E 002°58'2211.3
2018-Apr-21 21:00N 52°02' E 002°29'1512.6
2018-Apr-21 19:51N 51°54' E 002°10'513.8
2018-Apr-21 19:30N 51°52' E 002°03'713.8
2018-Apr-21 19:00N 51°49' E 001°53'612.6
2018-Apr-21 18:30N 51°50' E 001°43'5 9.3
2018-Apr-21 18:00N 51°51' E 001°36'4 7.6
2018-Apr-21 17:30N 51°48' E 001°31'713.2
2018-Apr-21 17:00N 51°43' E 001°24'713.5
2018-Apr-21 16:30N 51°39' E 001°16'912.2
2018-Apr-21 15:44N 51°33' E 001°04'311.1
2018-Apr-21 15:30N 51°32' E 001°00'510.7
2018-Apr-21 15:00N 51°30' E 000°52'510.4
2018-Apr-21 14:30N 51°29' E 000°44'510.3
2018-Apr-21 14:00N 51°30' E 000°36'5 9.5
2018-Apr-21 13:30N 51°30' E 000°28'4 7.4
2018-Apr-21 13:01N 51°27' E 000°24'2 4.3
2018-Apr-21 12:31N 51°27' E 000°21'0 0.9
2018-Apr-21 12:01N 51°28' E 000°21'0 0.0
2018-Apr-21 11:31N 51°28' E 000°21'0 0.0
2018-Apr-21 11:00N 51°28' E 000°21'0 0.0
2018-Apr-21 10:31N 51°28' E 000°21'0 0.0
2018-Apr-21 10:01N 51°28' E 000°21'0 0.0
2018-Apr-21 09:31N 51°28' E 000°21'0 0.7
2018-Apr-21 09:01N 51°27' E 000°21'0 0.4
2018-Apr-21 08:31N 51°27' E 000°21'0 0.0
2018-Apr-21 08:01N 51°27' E 000°21'0 0.0
2018-Apr-21 07:30N 51°27' E 000°21'0 0.0
2018-Apr-21 07:01N 51°27' E 000°21'0 0.0
2018-Apr-21 06:30N 51°27' E 000°21'0 0.0
2018-Apr-21 06:01N 51°27' E 000°21'0 0.0
2018-Apr-21 05:31N 51°27' E 000°21'0 0.0
2018-Apr-21 05:01N 51°27' E 000°21'0 0.0
2018-Apr-21 04:31N 51°27' E 000°21'0 0.0
2018-Apr-21 04:01N 51°27' E 000°21'0 0.0
2018-Apr-21 03:31N 51°27' E 000°21'0 0.0
2018-Apr-21 03:01N 51°27' E 000°21'0 0.0
2018-Apr-21 02:31N 51°27' E 000°21'0 0.0
2018-Apr-21 02:00N 51°27' E 000°21'0 0.0
2018-Apr-21 01:31N 51°27' E 000°21'0 0.0
2018-Apr-21 01:01N 51°27' E 000°21'0 0.0
2018-Apr-21 00:31N 51°27' E 000°21'0 0.0
2018-Apr-21 00:01N 51°27' E 000°21'0 0.0
2018-Apr-20 23:31N 51°27' E 000°21'0 0.0
2018-Apr-20 23:01N 51°27' E 000°21'0 0.0
2018-Apr-20 22:31N 51°27' E 000°21'0 0.0
2018-Apr-20 22:01N 51°27' E 000°21'0 0.0
2018-Apr-20 21:31N 51°27' E 000°21'0 0.0
2018-Apr-20 21:01N 51°27' E 000°21'0 0.0
2018-Apr-20 20:31N 51°27' E 000°21'0 0.0
2018-Apr-20 20:01N 51°27' E 000°21'0 0.0
2018-Apr-20 19:31N 51°27' E 000°21'0 0.0
2018-Apr-20 19:01N 51°27' E 000°21'0 0.0
2018-Apr-20 18:31N 51°27' E 000°21'0 0.0
2018-Apr-20 18:01N 51°27' E 000°21'0 0.0
2018-Apr-20 17:31N 51°27' E 000°21'0 0.0
2018-Apr-20 17:01N 51°27' E 000°21'0 0.0
2018-Apr-20 16:31N 51°27' E 000°21'0 0.0
2018-Apr-20 16:01N 51°27' E 000°21'0 0.0
2018-Apr-20 15:31N 51°27' E 000°21'0 0.0
2018-Apr-20 15:01N 51°27' E 000°21'0 0.0
2018-Apr-20 14:31N 51°27' E 000°21'0 0.0
2018-Apr-20 14:01N 51°27' E 000°21'0 0.0
2018-Apr-20 13:31N 51°27' E 000°21'0 0.0
2018-Apr-20 13:01N 51°27' E 000°21'0 0.0
2018-Apr-20 12:31N 51°27' E 000°21'0 0.0
2018-Apr-20 12:01N 51°27' E 000°21'0 0.0
2018-Apr-20 11:31N 51°27' E 000°21'0 0.0
2018-Apr-20 11:01N 51°27' E 000°21'0 0.0
2018-Apr-20 10:31N 51°27' E 000°21'0 0.0
2018-Apr-20 10:01N 51°27' E 000°21'0 0.0
2018-Apr-20 09:31N 51°27' E 000°21'0 0.0
2018-Apr-20 09:01N 51°27' E 000°21'0 0.0
2018-Apr-20 08:31N 51°27' E 000°21'0 0.8
2018-Apr-20 08:01N 51°28' E 000°21'0 0.0
2018-Apr-20 07:30N 51°28' E 000°21'0 0.0
2018-Apr-20 07:01N 51°28' E 000°21'0 0.0
2018-Apr-20 06:31N 51°28' E 000°21'0 0.0
2018-Apr-20 06:01N 51°28' E 000°21'0 0.0
2018-Apr-20 05:31N 51°28' E 000°21'0 0.0
2018-Apr-20 05:01N 51°28' E 000°21'0 0.0
2018-Apr-20 04:31N 51°28' E 000°21'0 0.0
2018-Apr-20 04:01N 51°28' E 000°21'0 0.0
2018-Apr-20 03:31N 51°28' E 000°21'0 0.0
2018-Apr-20 03:01N 51°28' E 000°21'0 0.0
2018-Apr-20 02:31N 51°28' E 000°21'0 0.0
2018-Apr-20 02:01N 51°28' E 000°21'0 0.0
2018-Apr-20 01:31N 51°28' E 000°21'0 0.0
2018-Apr-20 01:01N 51°28' E 000°21'0 0.0
2018-Apr-20 00:31N 51°28' E 000°21'0 0.0
2018-Apr-20 00:01N 51°28' E 000°21'0 0.0
2018-Apr-19 23:31N 51°28' E 000°21'0 0.0
2018-Apr-19 23:01N 51°28' E 000°21'0 0.0
2018-Apr-19 22:31N 51°28' E 000°21'0 0.0
2018-Apr-19 22:01N 51°28' E 000°21'0 0.0
2018-Apr-19 21:31N 51°28' E 000°21'0 0.0
2018-Apr-19 21:01N 51°28' E 000°21'0 0.0
2018-Apr-19 20:31N 51°28' E 000°21'0 0.0
2018-Apr-19 20:01N 51°28' E 000°21'0 0.0
2018-Apr-19 19:31N 51°28' E 000°21'0 0.0
2018-Apr-19 19:00N 51°28' E 000°21'0 0.0
2018-Apr-19 18:31N 51°28' E 000°21'0 0.0
2018-Apr-19 18:01N 51°28' E 000°21'0 0.0
2018-Apr-19 17:30N 51°28' E 000°21'0 0.0
2018-Apr-19 17:01N 51°28' E 000°21'0 0.0
2018-Apr-19 16:31N 51°28' E 000°21'0 0.0
2018-Apr-19 16:01N 51°28' E 000°21'0 0.0
2018-Apr-19 15:30N 51°28' E 000°21'0 0.0
2018-Apr-19 15:01N 51°28' E 000°21'0 0.0
2018-Apr-19 14:31N 51°28' E 000°21'0 0.0
2018-Apr-19 14:01N 51°28' E 000°21'0 0.0
2018-Apr-19 13:31N 51°28' E 000°21'0 0.0
2018-Apr-19 13:01N 51°28' E 000°21'0 0.0
2018-Apr-19 12:31N 51°28' E 000°21'0 0.0
2018-Apr-19 12:01N 51°28' E 000°21'0 0.0
2018-Apr-19 11:31N 51°28' E 000°21'0 0.0
2018-Apr-19 11:01N 51°28' E 000°21'0 0.0
2018-Apr-19 10:31N 51°28' E 000°21'0 0.0
2018-Apr-19 10:01N 51°28' E 000°21'0 0.0
2018-Apr-19 09:31N 51°28' E 000°21'0 0.0
2018-Apr-19 09:01N 51°28' E 000°21'0 0.0
2018-Apr-19 08:31N 51°28' E 000°21'0 0.0
2018-Apr-19 08:01N 51°28' E 000°21'0 0.0
2018-Apr-19 07:31N 51°28' E 000°21'0 0.9
2018-Apr-19 07:01N 51°27' E 000°21'0 0.6
2018-Apr-19 06:31N 51°27' E 000°20'2 4.2
2018-Apr-19 06:01N 51°27' E 000°24'4 8.9
2018-Apr-19 05:31N 51°30' E 000°29'5 9.4
2018-Apr-19 05:00N 51°30' E 000°36'5 9.9
2018-Apr-19 04:30N 51°30' E 000°44'510.3
2018-Apr-19 04:00N 51°30' E 000°53'611.2
2018-Apr-19 03:30N 51°30' E 001°02'611.8
2018-Apr-19 03:00N 51°29' E 001°11'713.1
2018-Apr-19 02:30N 51°28' E 001°21'713.5
2018-Apr-19 02:00N 51°26' E 001°31'3 5.8
2018-Apr-19 01:30N 51°24' E 001°35'1 2.5
2018-Apr-19 01:00N 51°25' E 001°33'4 7.6
2018-Apr-19 00:30N 51°21' E 001°36'612.2
2018-Apr-19 00:00N 51°15' E 001°38'510.8
2018-Apr-18 23:30N 51°10' E 001°34'4 8.8
2018-Apr-18 23:00N 51°07' E 001°29'4 8.8
2018-Apr-18 22:30N 51°05' E 001°24'4 8.8
2018-Apr-18 22:00N 51°02' E 001°18'11 8.9
2018-Apr-18 20:44N 50°55' E 001°04'2 9.5
2018-Apr-18 20:30N 50°53' E 001°01'4 8.6
2018-Apr-18 20:00N 50°51' E 000°56'4 8.5
2018-Apr-18 19:30N 50°49' E 000°50'4 8.6
2018-Apr-18 19:00N 50°46' E 000°45'4 8.6
2018-Apr-18 18:30N 50°44' E 000°39'4 8.7
2018-Apr-18 18:00N 50°42' E 000°32'5 9.7
2018-Apr-18 17:30N 50°42' E 000°25'5 9.8
2018-Apr-18 17:00N 50°42' E 000°17'5 9.4
2018-Apr-18 16:30N 50°43' E 000°10'5 9.8
2018-Apr-18 16:00N 50°44' E 000°02'510.0
2018-Apr-18 15:30N 50°45' W 000°06'510.4
2018-Apr-18 15:00N 50°47' W 000°13'3 5.8
2018-Apr-18 14:30N 50°50' W 000°14'1 1.9
2018-Apr-18 14:00N 50°50' W 000°13'0 0.0
2018-Apr-18 13:30N 50°50' W 000°13'0 0.0
2018-Apr-18 13:00N 50°50' W 000°13'0 0.0
2018-Apr-18 12:29N 50°50' W 000°13'0 0.0
2018-Apr-18 12:00N 50°50' W 000°13'0 0.0
2018-Apr-18 11:30N 50°50' W 000°13'0 0.0
2018-Apr-18 11:00N 50°50' W 000°13'0 0.0
2018-Apr-18 10:30N 50°50' W 000°13'0 0.0
2018-Apr-18 10:00N 50°50' W 000°13'0 0.0
2018-Apr-18 09:30N 50°50' W 000°13'0 0.0
2018-Apr-18 09:00N 50°50' W 000°13'0 0.0
2018-Apr-18 08:30N 50°50' W 000°13'0 0.0
2018-Apr-18 08:00N 50°50' W 000°13'0 0.0
2018-Apr-18 07:29N 50°50' W 000°13'0 0.0
2018-Apr-18 07:00N 50°50' W 000°13'0 0.0
2018-Apr-18 06:29N 50°50' W 000°13'0 0.0
2018-Apr-18 06:00N 50°50' W 000°13'0 0.0
2018-Apr-18 05:30N 50°50' W 000°13'0 0.0
2018-Apr-18 05:00N 50°50' W 000°13'0 0.0
2018-Apr-18 04:28N 50°50' W 000°13'0 0.0
2018-Apr-18 03:59N 50°50' W 000°13'0 0.0
2018-Apr-18 03:30N 50°50' W 000°13'0 0.0
2018-Apr-18 03:00N 50°50' W 000°13'0 0.0
2018-Apr-18 02:30N 50°50' W 000°13'0 0.0
2018-Apr-18 02:00N 50°50' W 000°13'0 0.0
2018-Apr-18 01:30N 50°50' W 000°13'0 0.0
2018-Apr-18 01:00N 50°50' W 000°13'0 0.0
2018-Apr-18 00:30N 50°50' W 000°13'0 0.0
2018-Apr-18 00:00N 50°50' W 000°13'0 0.0
2018-Apr-17 23:28N 50°50' W 000°13'0 0.0
2018-Apr-17 23:00N 50°50' W 000°13'0 0.0
2018-Apr-17 22:30N 50°50' W 000°13'0 0.0
2018-Apr-17 22:00N 50°50' W 000°13'0 0.0
2018-Apr-17 21:26N 50°50' W 000°13'0 0.0
2018-Apr-17 20:58N 50°50' W 000°13'0 0.0
2018-Apr-17 20:30N 50°50' W 000°13'0 0.0
2018-Apr-17 20:00N 50°50' W 000°13'0 0.0
2018-Apr-17 19:27N 50°50' W 000°13'0 0.0
2018-Apr-17 19:00N 50°50' W 000°13'0 0.0
2018-Apr-17 18:30N 50°50' W 000°13'0 0.0
2018-Apr-17 18:00N 50°50' W 000°13'0 0.0
2018-Apr-17 17:29N 50°50' W 000°13'0 0.0
2018-Apr-17 17:00N 50°50' W 000°13'0 0.0
2018-Apr-17 16:30N 50°50' W 000°13'0 0.0
2018-Apr-17 16:00N 50°50' W 000°13'0 0.0
2018-Apr-17 15:30N 50°50' W 000°13'0 0.0
2018-Apr-17 14:59N 50°50' W 000°13'0 0.0
2018-Apr-17 14:30N 50°50' W 000°13'0 0.0
2018-Apr-17 13:55N 50°50' W 000°13'0 0.0
2018-Apr-17 13:30N 50°50' W 000°13'0 0.0
2018-Apr-17 12:59N 50°50' W 000°13'0 0.0
2018-Apr-17 12:30N 50°50' W 000°13'0 0.0
2018-Apr-17 12:00N 50°50' W 000°13'0 0.0
2018-Apr-17 11:30N 50°50' W 000°13'0 0.0
2018-Apr-17 11:00N 50°50' W 000°13'0 0.0
2018-Apr-17 10:30N 50°50' W 000°13'0 0.0
2018-Apr-17 10:00N 50°50' W 000°13'0 0.0
2018-Apr-17 09:30N 50°50' W 000°13'0 0.0
2018-Apr-17 09:00N 50°50' W 000°13'0 0.0
2018-Apr-17 08:26N 50°50' W 000°13'0 0.0
2018-Apr-17 08:00N 50°50' W 000°13'0 0.0
2018-Apr-17 07:30N 50°50' W 000°13'0 0.0
2018-Apr-17 07:00N 50°50' W 000°13'0 0.0
2018-Apr-17 06:30N 50°50' W 000°13'0 0.0
2018-Apr-17 06:00N 50°50' W 000°13'0 0.0
2018-Apr-17 05:29N 50°50' W 000°13'0 0.0
2018-Apr-17 05:00N 50°50' W 000°13'0 0.0
2018-Apr-17 04:29N 50°50' W 000°13'0 0.0
2018-Apr-17 04:00N 50°50' W 000°13'0 0.0
2018-Apr-17 03:29N 50°50' W 000°13'0 0.0
2018-Apr-17 03:00N 50°50' W 000°13'0 0.0
2018-Apr-17 02:29N 50°50' W 000°13'0 0.0
2018-Apr-17 02:00N 50°50' W 000°13'0 0.0
2018-Apr-17 01:30N 50°50' W 000°13'0 0.0
2018-Apr-17 01:00N 50°50' W 000°13'0 0.3
2018-Apr-17 00:30N 50°50' W 000°13'0 0.3
2018-Apr-17 00:00N 50°50' W 000°13'1 2.0
2018-Apr-16 23:30N 50°50' W 000°14'2 3.0
2018-Apr-16 23:00N 50°48' W 000°15'2 4.5
2018-Apr-16 22:30N 50°46' W 000°17'2 3.1
2018-Apr-16 22:00N 50°45' W 000°18'2 3.1
2018-Apr-16 21:30N 50°45' W 000°16'1 2.9
2018-Apr-16 21:00N 50°45' W 000°13'1 2.9
2018-Apr-16 20:30N 50°45' W 000°11'2 3.8
2018-Apr-16 20:00N 50°45' W 000°08'2 4.3
2018-Apr-16 19:29N 50°44' W 000°05'2 4.7
2018-Apr-16 19:00N 50°44' W 000°01'3 5.2
2018-Apr-16 18:30N 50°43' E 000°03'3 6.0
2018-Apr-16 18:00N 50°42' E 000°07'4 7.1
2018-Apr-16 17:30N 50°41' E 000°12'4 7.8
2018-Apr-16 17:00N 50°40' E 000°18'4 8.8
2018-Apr-16 16:30N 50°40' E 000°25'5 9.6
2018-Apr-16 16:00N 50°39' E 000°33'5 9.5
2018-Apr-16 15:30N 50°41' E 000°39'5 9.4
2018-Apr-16 15:00N 50°44' E 000°45'5 9.5
2018-Apr-16 14:30N 50°47' E 000°51'4 8.9
2018-Apr-16 14:00N 50°49' E 000°57'4 8.4
2018-Apr-16 13:29N 50°52' E 001°03'17 7.1
2018-Apr-16 11:04N 51°03' E 001°24'2 6.7
2018-Apr-16 10:51N 51°04' E 001°25'3 7.7
2018-Apr-16 10:30N 51°05' E 001°29'5 9.9
2018-Apr-16 10:00N 51°08' E 001°35'511.0
2018-Apr-16 09:31N 51°12' E 001°42'612.0
2018-Apr-16 09:00N 51°16' E 001°48'612.7
2018-Apr-16 08:30N 51°22' E 001°52'612.6
2018-Apr-16 08:00N 51°28' E 001°57'1 2.7
2018-Apr-16 07:29N 51°29' E 001°58'4 9.3
2018-Apr-16 07:00N 51°32' E 002°03'712.5
2018-Apr-16 06:27N 51°38' E 002°10'1711.7
2018-Apr-16 04:58N 51°50' E 002°29'10512.1
2018-Apr-15 20:14N 53°10' E 004°22'912.6
2018-Apr-15 19:30N 53°18' E 004°30'612.1
2018-Apr-15 18:59N 53°24' E 004°35'511.4
2018-Apr-15 18:30N 53°28' E 004°41'611.2
2018-Apr-15 17:59N 53°30' E 004°49'510.9
2018-Apr-15 17:30N 53°32' E 004°58'10112.8
2018-Apr-15 09:36N 54°01' E 007°42'411.6
2018-Apr-15 09:17N 54°01' E 007°48'311.6
2018-Apr-15 09:00N 54°01' E 007°54'611.3
2018-Apr-15 08:30N 54°01' E 008°03'510.8
2018-Apr-15 08:00N 54°01' E 008°13'510.8
2018-Apr-15 07:30N 53°60' E 008°22'611.4
2018-Apr-15 07:00N 53°58' E 008°31'612.7
2018-Apr-15 06:30N 53°56' E 008°40'714.9
2018-Apr-15 06:00N 53°51' E 008°50'815.8
2018-Apr-15 05:30N 53°52' E 009°03'4 7.5
2018-Apr-15 05:00N 53°54' E 009°09'0 0.4
2018-Apr-15 04:30N 53°54' E 009°09'2 4.2
2018-Apr-15 04:01N 53°55' E 009°12'4 7.1
2018-Apr-15 03:30N 53°58' E 009°15'4 8.3
2018-Apr-15 03:00N 54°02' E 009°18'4 7.9
2018-Apr-15 02:30N 54°06' E 009°20'4 7.8
2018-Apr-15 02:00N 54°09' E 009°22'4 8.4
2018-Apr-15 01:30N 54°11' E 009°29'4 8.5
2018-Apr-15 01:00N 54°13' E 009°35'4 7.2
2018-Apr-15 00:30N 54°16' E 009°38'4 7.7
2018-Apr-15 00:00N 54°19' E 009°43'3 6.3
2018-Apr-14 23:30N 54°21' E 009°46'28 5.3
2018-Apr-14 18:15N 54°33' E 010°29'311.7
2018-Apr-14 18:00N 54°34' E 010°34'611.7
2018-Apr-14 17:28N 54°35' E 010°44'612.0
2018-Apr-14 17:00N 54°35' E 010°54'612.1
2018-Apr-14 16:30N 54°36' E 011°04'611.9
2018-Apr-14 16:00N 54°35' E 011°15'612.4
2018-Apr-14 15:30N 54°33' E 011°24'612.3
2018-Apr-14 15:00N 54°30' E 011°34'612.6
2018-Apr-14 14:30N 54°28' E 011°44'612.3
2018-Apr-14 14:00N 54°27' E 011°54'  
Track history (hours):
 
Tides and Currents Weather Stations Pressure Air Temp Water Temp Dewpoint Dewpoint Depression Visibility Wind Speed Wind Dir Waves Ship Positions

Lammy

Last reported at 2018-Apr-24 12:21 UTC. Time now 2018-Apr-24 12:41 UTC.
Position N 56°20' E 016°54'.

Length 95 m; draft 4.5 m.

Type: Cargo ship. MMSI: 245391000.

Date/timePositionNaut miles runAvg speedWind from/ knotsBaromVisibWave heightAir tempDewpointWater temp
2018-Apr-24 12:21N 56°20' E 016°54'410.5
2018-Apr-24 12:00N 56°16' E 016°53'510.5
2018-Apr-24 11:29N 56°11' E 016°51'510.4
2018-Apr-24 11:00N 56°06' E 016°49'510.3
2018-Apr-24 10:30N 56°03' E 016°42'510.5
2018-Apr-24 10:01N 55°60' E 016°33'510.5
2018-Apr-24 09:31N 55°57' E 016°25'510.4
2018-Apr-24 09:01N 55°55' E 016°17'510.4
2018-Apr-24 08:30N 55°52' E 016°09'510.5
2018-Apr-24 08:00N 55°49' E 016°02'510.3
2018-Apr-24 07:30N 55°46' E 015°54'510.4
2018-Apr-24 07:00N 55°44' E 015°46'510.5
2018-Apr-24 06:30N 55°41' E 015°38'510.3
2018-Apr-24 06:00N 55°39' E 015°30'510.3
2018-Apr-24 05:30N 55°36' E 015°22'510.3
2018-Apr-24 05:00N 55°34' E 015°14'510.4
2018-Apr-24 04:30N 55°31' E 015°06'510.3
2018-Apr-24 03:59N 55°28' E 014°58'510.2
2018-Apr-24 03:30N 55°26' E 014°50'510.5
2018-Apr-24 03:00N 55°23' E 014°42'510.4
2018-Apr-24 02:30N 55°20' E 014°36'510.4
2018-Apr-24 02:00N 55°16' E 014°30'710.4
2018-Apr-24 01:22N 55°11' E 014°22'410.5
2018-Apr-24 00:58N 55°07' E 014°17'510.5
2018-Apr-24 00:27N 55°03' E 014°11'5010.3
2018-Apr-23 19:37N 54°42' E 012°53'110.4
2018-Apr-23 19:29N 54°41' E 012°51'510.5
2018-Apr-23 19:00N 54°39' E 012°43'2010.3
2018-Apr-23 17:00N 54°28' E 012°14'510.0
2018-Apr-23 16:30N 54°25' E 012°07'1010.7
2018-Apr-23 15:33N 54°25' E 011°49'110.7
2018-Apr-23 15:29N 54°25' E 011°48'610.6
2018-Apr-23 14:56N 54°27' E 011°39'510.8
2018-Apr-23 14:30N 54°29' E 011°32'510.4
2018-Apr-23 14:00N 54°31' E 011°23'510.2
2018-Apr-23 13:30N 54°33' E 011°16'510.0
2018-Apr-23 13:00N 54°35' E 011°07'510.4
2018-Apr-23 12:30N 54°34' E 010°59'510.5
2018-Apr-23 12:00N 54°34' E 010°49'510.5
2018-Apr-23 11:30N 54°34' E 010°40'510.5
2018-Apr-23 11:00N 54°33' E 010°32'22 6.0
2018-Apr-23 07:16N 54°21' E 009°59'3 7.9
2018-Apr-23 06:52N 54°21' E 009°54'3 8.2
2018-Apr-23 06:28N 54°22' E 009°48'4 8.3
2018-Apr-23 06:00N 54°19' E 009°43'4 7.5
2018-Apr-23 05:30N 54°17' E 009°38'4 7.1
2018-Apr-23 05:00N 54°13' E 009°36'4 8.2
2018-Apr-23 04:30N 54°11' E 009°30'4 8.5
2018-Apr-23 04:00N 54°09' E 009°23'4 7.6
2018-Apr-23 03:26N 54°06' E 009°20'3 7.9
2018-Apr-23 03:00N 54°03' E 009°18'3 6.0
2018-Apr-23 02:30N 53°60' E 009°17'4 7.5
2018-Apr-23 02:00N 53°57' E 009°13'4 7.4
2018-Apr-23 01:30N 53°54' E 009°09'0 0.6
2018-Apr-23 01:00N 53°54' E 009°09'0 0.1
2018-Apr-23 00:30N 53°54' E 009°09'1 2.6
2018-Apr-23 00:00N 53°53' E 009°07'1 1.1
2018-Apr-22 23:30N 53°53' E 009°06'1 2.7
2018-Apr-22 23:00N 53°53' E 009°04'3 6.9
2018-Apr-22 22:30N 53°51' E 008°58'4 7.7
2018-Apr-22 22:00N 53°50' E 008°52'3 6.9
2018-Apr-22 21:30N 53°51' E 008°46'3 6.7
2018-Apr-22 21:00N 53°53' E 008°42'3 6.9
2018-Apr-22 20:30N 53°56' E 008°39'4 7.6
2018-Apr-22 20:00N 53°58' E 008°34'5 8.9
2018-Apr-22 19:28N 53°59' E 008°25'11511.5
2018-Apr-22 09:30N 53°31' E 005°17'612.5
2018-Apr-22 09:00N 53°29' E 005°07'612.7
2018-Apr-22 08:30N 53°27' E 004°57'612.4
2018-Apr-22 08:00N 53°24' E 004°48'611.9
2018-Apr-22 07:30N 53°20' E 004°41'712.4
2018-Apr-22 06:58N 53°14' E 004°35'612.0
2018-Apr-22 06:30N 53°09' E 004°30'611.6
2018-Apr-22 05:58N 53°04' E 004°25'611.3
2018-Apr-22 05:26N 52°59' E 004°20'611.0
2018-Apr-22 04:54N 52°54' E 004°16'1010.6
2018-Apr-22 03:59N 52°46' E 004°06'610.5
2018-Apr-22 03:27N 52°42' E 003°59'2910.2
2018-Apr-22 00:35N 52°25' E 003°20'1 9.9
2018-Apr-22 00:30N 52°25' E 003°19'510.1
2018-Apr-22 00:00N 52°22' E 003°12'510.3
2018-Apr-21 23:29N 52°18' E 003°05'510.5
2018-Apr-21 22:58N 52°15' E 002°58'2211.3
2018-Apr-21 21:00N 52°02' E 002°29'1512.6
2018-Apr-21 19:51N 51°54' E 002°10'513.8
2018-Apr-21 19:30N 51°52' E 002°03'713.8
2018-Apr-21 19:00N 51°49' E 001°53'612.6
2018-Apr-21 18:30N 51°50' E 001°43'5 9.3
2018-Apr-21 18:00N 51°51' E 001°36'4 7.6
2018-Apr-21 17:30N 51°48' E 001°31'713.2
2018-Apr-21 17:00N 51°43' E 001°24'713.5
2018-Apr-21 16:30N 51°39' E 001°16'912.2
2018-Apr-21 15:44N 51°33' E 001°04'311.1
2018-Apr-21 15:30N 51°32' E 001°00'510.7
2018-Apr-21 15:00N 51°30' E 000°52'510.4
2018-Apr-21 14:30N 51°29' E 000°44'510.3
2018-Apr-21 14:00N 51°30' E 000°36'5 9.5
2018-Apr-21 13:30N 51°30' E 000°28'4 7.4
2018-Apr-21 13:01N 51°27' E 000°24'2 4.3
2018-Apr-21 12:31N 51°27' E 000°21'0 0.9
2018-Apr-21 12:01N 51°28' E 000°21'0 0.0
2018-Apr-21 11:31N 51°28' E 000°21'0 0.0
2018-Apr-21 11:00N 51°28' E 000°21'0 0.0
2018-Apr-21 10:31N 51°28' E 000°21'0 0.0
2018-Apr-21 10:01N 51°28' E 000°21'0 0.0
2018-Apr-21 09:31N 51°28' E 000°21'0 0.7
2018-Apr-21 09:01N 51°27' E 000°21'0 0.4
2018-Apr-21 08:31N 51°27' E 000°21'0 0.0
2018-Apr-21 08:01N 51°27' E 000°21'0 0.0
2018-Apr-21 07:30N 51°27' E 000°21'0 0.0
2018-Apr-21 07:01N 51°27' E 000°21'0 0.0
2018-Apr-21 06:30N 51°27' E 000°21'0 0.0
2018-Apr-21 06:01N 51°27' E 000°21'0 0.0
2018-Apr-21 05:31N 51°27' E 000°21'0 0.0
2018-Apr-21 05:01N 51°27' E 000°21'0 0.0
2018-Apr-21 04:31N 51°27' E 000°21'0 0.0
2018-Apr-21 04:01N 51°27' E 000°21'0 0.0
2018-Apr-21 03:31N 51°27' E 000°21'0 0.0
2018-Apr-21 03:01N 51°27' E 000°21'0 0.0
2018-Apr-21 02:31N 51°27' E 000°21'0 0.0
2018-Apr-21 02:00N 51°27' E 000°21'0 0.0
2018-Apr-21 01:31N 51°27' E 000°21'0 0.0
2018-Apr-21 01:01N 51°27' E 000°21'0 0.0
2018-Apr-21 00:31N 51°27' E 000°21'0 0.0
2018-Apr-21 00:01N 51°27' E 000°21'0 0.0
2018-Apr-20 23:31N 51°27' E 000°21'0 0.0
2018-Apr-20 23:01N 51°27' E 000°21'0 0.0
2018-Apr-20 22:31N 51°27' E 000°21'0 0.0
2018-Apr-20 22:01N 51°27' E 000°21'0 0.0
2018-Apr-20 21:31N 51°27' E 000°21'0 0.0
2018-Apr-20 21:01N 51°27' E 000°21'0 0.0
2018-Apr-20 20:31N 51°27' E 000°21'0 0.0
2018-Apr-20 20:01N 51°27' E 000°21'0 0.0
2018-Apr-20 19:31N 51°27' E 000°21'0 0.0
2018-Apr-20 19:01N 51°27' E 000°21'0 0.0
2018-Apr-20 18:31N 51°27' E 000°21'0 0.0
2018-Apr-20 18:01N 51°27' E 000°21'0 0.0
2018-Apr-20 17:31N 51°27' E 000°21'0 0.0
2018-Apr-20 17:01N 51°27' E 000°21'0 0.0
2018-Apr-20 16:31N 51°27' E 000°21'0 0.0
2018-Apr-20 16:01N 51°27' E 000°21'0 0.0
2018-Apr-20 15:31N 51°27' E 000°21'0 0.0
2018-Apr-20 15:01N 51°27' E 000°21'0 0.0
2018-Apr-20 14:31N 51°27' E 000°21'0 0.0
2018-Apr-20 14:01N 51°27' E 000°21'0 0.0
2018-Apr-20 13:31N 51°27' E 000°21'0 0.0
2018-Apr-20 13:01N 51°27' E 000°21'0 0.0
2018-Apr-20 12:31N 51°27' E 000°21'0 0.0
2018-Apr-20 12:01N 51°27' E 000°21'0 0.0
2018-Apr-20 11:31N 51°27' E 000°21'0 0.0
2018-Apr-20 11:01N 51°27' E 000°21'0 0.0
2018-Apr-20 10:31N 51°27' E 000°21'0 0.0
2018-Apr-20 10:01N 51°27' E 000°21'0 0.0
2018-Apr-20 09:31N 51°27' E 000°21'0 0.0
2018-Apr-20 09:01N 51°27' E 000°21'0 0.0
2018-Apr-20 08:31N 51°27' E 000°21'0 0.8
2018-Apr-20 08:01N 51°28' E 000°21'0 0.0
2018-Apr-20 07:30N 51°28' E 000°21'0 0.0
2018-Apr-20 07:01N 51°28' E 000°21'0 0.0
2018-Apr-20 06:31N 51°28' E 000°21'0 0.0
2018-Apr-20 06:01N 51°28' E 000°21'0 0.0
2018-Apr-20 05:31N 51°28' E 000°21'0 0.0
2018-Apr-20 05:01N 51°28' E 000°21'0 0.0
2018-Apr-20 04:31N 51°28' E 000°21'0 0.0
2018-Apr-20 04:01N 51°28' E 000°21'0 0.0
2018-Apr-20 03:31N 51°28' E 000°21'0 0.0
2018-Apr-20 03:01N 51°28' E 000°21'0 0.0
2018-Apr-20 02:31N 51°28' E 000°21'0 0.0
2018-Apr-20 02:01N 51°28' E 000°21'0 0.0
2018-Apr-20 01:31N 51°28' E 000°21'0 0.0
2018-Apr-20 01:01N 51°28' E 000°21'0 0.0
2018-Apr-20 00:31N 51°28' E 000°21'0 0.0
2018-Apr-20 00:01N 51°28' E 000°21'0 0.0
2018-Apr-19 23:31N 51°28' E 000°21'0 0.0
2018-Apr-19 23:01N 51°28' E 000°21'0 0.0
2018-Apr-19 22:31N 51°28' E 000°21'0 0.0
2018-Apr-19 22:01N 51°28' E 000°21'0 0.0
2018-Apr-19 21:31N 51°28' E 000°21'0 0.0
2018-Apr-19 21:01N 51°28' E 000°21'0 0.0
2018-Apr-19 20:31N 51°28' E 000°21'0 0.0
2018-Apr-19 20:01N 51°28' E 000°21'0 0.0
2018-Apr-19 19:31N 51°28' E 000°21'0 0.0
2018-Apr-19 19:00N 51°28' E 000°21'0 0.0
2018-Apr-19 18:31N 51°28' E 000°21'0 0.0
2018-Apr-19 18:01N 51°28' E 000°21'0 0.0
2018-Apr-19 17:30N 51°28' E 000°21'0 0.0
2018-Apr-19 17:01N 51°28' E 000°21'0 0.0
2018-Apr-19 16:31N 51°28' E 000°21'0 0.0
2018-Apr-19 16:01N 51°28' E 000°21'0 0.0
2018-Apr-19 15:30N 51°28' E 000°21'0 0.0
2018-Apr-19 15:01N 51°28' E 000°21'0 0.0
2018-Apr-19 14:31N 51°28' E 000°21'0 0.0
2018-Apr-19 14:01N 51°28' E 000°21'0 0.0
2018-Apr-19 13:31N 51°28' E 000°21'0 0.0
2018-Apr-19 13:01N 51°28' E 000°21'0 0.0
2018-Apr-19 12:31N 51°28' E 000°21'0 0.0
2018-Apr-19 12:01N 51°28' E 000°21'0 0.0
2018-Apr-19 11:31N 51°28' E 000°21'0 0.0
2018-Apr-19 11:01N 51°28' E 000°21'0 0.0
2018-Apr-19 10:31N 51°28' E 000°21'0 0.0
2018-Apr-19 10:01N 51°28' E 000°21'0 0.0
2018-Apr-19 09:31N 51°28' E 000°21'0 0.0
2018-Apr-19 09:01N 51°28' E 000°21'0 0.0
2018-Apr-19 08:31N 51°28' E 000°21'0 0.0
2018-Apr-19 08:01N 51°28' E 000°21'0 0.0
2018-Apr-19 07:31N 51°28' E 000°21'0 0.9
2018-Apr-19 07:01N 51°27' E 000°21'0 0.6
2018-Apr-19 06:31N 51°27' E 000°20'2 4.2
2018-Apr-19 06:01N 51°27' E 000°24'4 8.9
2018-Apr-19 05:31N 51°30' E 000°29'5 9.4
2018-Apr-19 05:00N 51°30' E 000°36'5 9.9
2018-Apr-19 04:30N 51°30' E 000°44'510.3
2018-Apr-19 04:00N 51°30' E 000°53'611.2
2018-Apr-19 03:30N 51°30' E 001°02'611.8
2018-Apr-19 03:00N 51°29' E 001°11'713.1
2018-Apr-19 02:30N 51°28' E 001°21'713.5
2018-Apr-19 02:00N 51°26' E 001°31'3 5.8
2018-Apr-19 01:30N 51°24' E 001°35'1 2.5
2018-Apr-19 01:00N 51°25' E 001°33'4 7.6
2018-Apr-19 00:30N 51°21' E 001°36'612.2
2018-Apr-19 00:00N 51°15' E 001°38'510.8
2018-Apr-18 23:30N 51°10' E 001°34'4 8.8
2018-Apr-18 23:00N 51°07' E 001°29'4 8.8
2018-Apr-18 22:30N 51°05' E 001°24'4 8.8
2018-Apr-18 22:00N 51°02' E 001°18'11 8.9
2018-Apr-18 20:44N 50°55' E 001°04'2 9.5
2018-Apr-18 20:30N 50°53' E 001°01'4 8.6
2018-Apr-18 20:00N 50°51' E 000°56'4 8.5
2018-Apr-18 19:30N 50°49' E 000°50'4 8.6
2018-Apr-18 19:00N 50°46' E 000°45'4 8.6
2018-Apr-18 18:30N 50°44' E 000°39'4 8.7
2018-Apr-18 18:00N 50°42' E 000°32'5 9.7
2018-Apr-18 17:30N 50°42' E 000°25'5 9.8
2018-Apr-18 17:00N 50°42' E 000°17'5 9.4
2018-Apr-18 16:30N 50°43' E 000°10'5 9.8
2018-Apr-18 16:00N 50°44' E 000°02'510.0
2018-Apr-18 15:30N 50°45' W 000°06'510.4
2018-Apr-18 15:00N 50°47' W 000°13'3 5.8
2018-Apr-18 14:30N 50°50' W 000°14'1 1.9
2018-Apr-18 14:00N 50°50' W 000°13'0 0.0
2018-Apr-18 13:30N 50°50' W 000°13'0 0.0
2018-Apr-18 13:00N 50°50' W 000°13'0 0.0
2018-Apr-18 12:29N 50°50' W 000°13'0 0.0
2018-Apr-18 12:00N 50°50' W 000°13'0 0.0
2018-Apr-18 11:30N 50°50' W 000°13'0 0.0
2018-Apr-18 11:00N 50°50' W 000°13'0 0.0
2018-Apr-18 10:30N 50°50' W 000°13'0 0.0
2018-Apr-18 10:00N 50°50' W 000°13'0 0.0
2018-Apr-18 09:30N 50°50' W 000°13'0 0.0
2018-Apr-18 09:00N 50°50' W 000°13'0 0.0
2018-Apr-18 08:30N 50°50' W 000°13'0 0.0
2018-Apr-18 08:00N 50°50' W 000°13'0 0.0
2018-Apr-18 07:29N 50°50' W 000°13'0 0.0
2018-Apr-18 07:00N 50°50' W 000°13'0 0.0
2018-Apr-18 06:29N 50°50' W 000°13'0 0.0
2018-Apr-18 06:00N 50°50' W 000°13'0 0.0
2018-Apr-18 05:30N 50°50' W 000°13'0 0.0
2018-Apr-18 05:00N 50°50' W 000°13'0 0.0
2018-Apr-18 04:28N 50°50' W 000°13'0 0.0
2018-Apr-18 03:59N 50°50' W 000°13'0 0.0
2018-Apr-18 03:30N 50°50' W 000°13'0 0.0
2018-Apr-18 03:00N 50°50' W 000°13'0 0.0
2018-Apr-18 02:30N 50°50' W 000°13'0 0.0
2018-Apr-18 02:00N 50°50' W 000°13'0 0.0
2018-Apr-18 01:30N 50°50' W 000°13'0 0.0
2018-Apr-18 01:00N 50°50' W 000°13'0 0.0
2018-Apr-18 00:30N 50°50' W 000°13'0 0.0
2018-Apr-18 00:00N 50°50' W 000°13'0 0.0
2018-Apr-17 23:28N 50°50' W 000°13'0 0.0
2018-Apr-17 23:00N 50°50' W 000°13'0 0.0
2018-Apr-17 22:30N 50°50' W 000°13'0 0.0
2018-Apr-17 22:00N 50°50' W 000°13'0 0.0
2018-Apr-17 21:26N 50°50' W 000°13'0 0.0
2018-Apr-17 20:58N 50°50' W 000°13'0 0.0
2018-Apr-17 20:30N 50°50' W 000°13'0 0.0
2018-Apr-17 20:00N 50°50' W 000°13'0 0.0
2018-Apr-17 19:27N 50°50' W 000°13'0 0.0
2018-Apr-17 19:00N 50°50' W 000°13'0 0.0
2018-Apr-17 18:30N 50°50' W 000°13'0 0.0
2018-Apr-17 18:00N 50°50' W 000°13'0 0.0
2018-Apr-17 17:29N 50°50' W 000°13'0 0.0
2018-Apr-17 17:00N 50°50' W 000°13'0 0.0
2018-Apr-17 16:30N 50°50' W 000°13'0 0.0
2018-Apr-17 16:00N 50°50' W 000°13'0 0.0
2018-Apr-17 15:30N 50°50' W 000°13'0 0.0
2018-Apr-17 14:59N 50°50' W 000°13'0 0.0
2018-Apr-17 14:30N 50°50' W 000°13'0 0.0
2018-Apr-17 13:55N 50°50' W 000°13'0 0.0
2018-Apr-17 13:30N 50°50' W 000°13'0 0.0
2018-Apr-17 12:59N 50°50' W 000°13'0 0.0
2018-Apr-17 12:30N 50°50' W 000°13'0 0.0
2018-Apr-17 12:00N 50°50' W 000°13'0 0.0
2018-Apr-17 11:30N 50°50' W 000°13'0 0.0
2018-Apr-17 11:00N 50°50' W 000°13'0 0.0
2018-Apr-17 10:30N 50°50' W 000°13'0 0.0
2018-Apr-17 10:00N 50°50' W 000°13'0 0.0
2018-Apr-17 09:30N 50°50' W 000°13'0 0.0
2018-Apr-17 09:00N 50°50' W 000°13'0 0.0
2018-Apr-17 08:26N 50°50' W 000°13'0 0.0
2018-Apr-17 08:00N 50°50' W 000°13'0 0.0
2018-Apr-17 07:30N 50°50' W 000°13'0 0.0
2018-Apr-17 07:00N 50°50' W 000°13'0 0.0
2018-Apr-17 06:30N 50°50' W 000°13'0 0.0
2018-Apr-17 06:00N 50°50' W 000°13'0 0.0
2018-Apr-17 05:29N 50°50' W 000°13'0 0.0
2018-Apr-17 05:00N 50°50' W 000°13'0 0.0
2018-Apr-17 04:29N 50°50' W 000°13'0 0.0
2018-Apr-17 04:00N 50°50' W 000°13'0 0.0
2018-Apr-17 03:29N 50°50' W 000°13'0 0.0
2018-Apr-17 03:00N 50°50' W 000°13'0 0.0
2018-Apr-17 02:29N 50°50' W 000°13'0 0.0
2018-Apr-17 02:00N 50°50' W 000°13'0 0.0
2018-Apr-17 01:30N 50°50' W 000°13'0 0.0
2018-Apr-17 01:00N 50°50' W 000°13'0 0.3
2018-Apr-17 00:30N 50°50' W 000°13'0 0.3
2018-Apr-17 00:00N 50°50' W 000°13'1 2.0
2018-Apr-16 23:30N 50°50' W 000°14'2 3.0
2018-Apr-16 23:00N 50°48' W 000°15'2 4.5
2018-Apr-16 22:30N 50°46' W 000°17'2 3.1
2018-Apr-16 22:00N 50°45' W 000°18'2 3.1
2018-Apr-16 21:30N 50°45' W 000°16'1 2.9
2018-Apr-16 21:00N 50°45' W 000°13'1 2.9
2018-Apr-16 20:30N 50°45' W 000°11'2 3.8
2018-Apr-16 20:00N 50°45' W 000°08'2 4.3
2018-Apr-16 19:29N 50°44' W 000°05'2 4.7
2018-Apr-16 19:00N 50°44' W 000°01'3 5.2
2018-Apr-16 18:30N 50°43' E 000°03'3 6.0
2018-Apr-16 18:00N 50°42' E 000°07'4 7.1
2018-Apr-16 17:30N 50°41' E 000°12'4 7.8
2018-Apr-16 17:00N 50°40' E 000°18'4 8.8
2018-Apr-16 16:30N 50°40' E 000°25'5 9.6
2018-Apr-16 16:00N 50°39' E 000°33'5 9.5
2018-Apr-16 15:30N 50°41' E 000°39'5 9.4
2018-Apr-16 15:00N 50°44' E 000°45'5 9.5
2018-Apr-16 14:30N 50°47' E 000°51'4 8.9
2018-Apr-16 14:00N 50°49' E 000°57'4 8.4
2018-Apr-16 13:29N 50°52' E 001°03'17 7.1
2018-Apr-16 11:04N 51°03' E 001°24'2 6.7
2018-Apr-16 10:51N 51°04' E 001°25'3 7.7
2018-Apr-16 10:30N 51°05' E 001°29'5 9.9
2018-Apr-16 10:00N 51°08' E 001°35'511.0
2018-Apr-16 09:31N 51°12' E 001°42'612.0
2018-Apr-16 09:00N 51°16' E 001°48'612.7
2018-Apr-16 08:30N 51°22' E 001°52'612.6
2018-Apr-16 08:00N 51°28' E 001°57'1 2.7
2018-Apr-16 07:29N 51°29' E 001°58'4 9.3
2018-Apr-16 07:00N 51°32' E 002°03'712.5
2018-Apr-16 06:27N 51°38' E 002°10'1711.7
2018-Apr-16 04:58N 51°50' E 002°29'10512.1
2018-Apr-15 20:14N 53°10' E 004°22'912.6
2018-Apr-15 19:30N 53°18' E 004°30'612.1
2018-Apr-15 18:59N 53°24' E 004°35'511.4
2018-Apr-15 18:30N 53°28' E 004°41'611.2
2018-Apr-15 17:59N 53°30' E 004°49'510.9
2018-Apr-15 17:30N 53°32' E 004°58'10112.8
2018-Apr-15 09:36N 54°01' E 007°42'411.6
2018-Apr-15 09:17N 54°01' E 007°48'311.6
2018-Apr-15 09:00N 54°01' E 007°54'611.3
2018-Apr-15 08:30N 54°01' E 008°03'510.8
2018-Apr-15 08:00N 54°01' E 008°13'510.8
2018-Apr-15 07:30N 53°60' E 008°22'611.4
2018-Apr-15 07:00N 53°58' E 008°31'612.7
2018-Apr-15 06:30N 53°56' E 008°40'714.9
2018-Apr-15 06:00N 53°51' E 008°50'815.8
2018-Apr-15 05:30N 53°52' E 009°03'4 7.5
2018-Apr-15 05:00N 53°54' E 009°09'0 0.4
2018-Apr-15 04:30N 53°54' E 009°09'2 4.2
2018-Apr-15 04:01N 53°55' E 009°12'4 7.1
2018-Apr-15 03:30N 53°58' E 009°15'4 8.3
2018-Apr-15 03:00N 54°02' E 009°18'4 7.9
2018-Apr-15 02:30N 54°06' E 009°20'4 7.8
2018-Apr-15 02:00N 54°09' E 009°22'4 8.4
2018-Apr-15 01:30N 54°11' E 009°29'4 8.5
2018-Apr-15 01:00N 54°13' E 009°35'4 7.2
2018-Apr-15 00:30N 54°16' E 009°38'4 7.7
2018-Apr-15 00:00N 54°19' E 009°43'3 6.3
2018-Apr-14 23:30N 54°21' E 009°46'28 5.3
2018-Apr-14 18:15N 54°33' E 010°29'311.7
2018-Apr-14 18:00N 54°34' E 010°34'611.7
2018-Apr-14 17:28N 54°35' E 010°44'612.0
2018-Apr-14 17:00N 54°35' E 010°54'612.1
2018-Apr-14 16:30N 54°36' E 011°04'611.9
2018-Apr-14 16:00N 54°35' E 011°15'612.4
2018-Apr-14 15:30N 54°33' E 011°24'612.3
2018-Apr-14 15:00N 54°30' E 011°34'612.6
2018-Apr-14 14:30N 54°28' E 011°44'612.3
2018-Apr-14 14:00N 54°27' E 011°54'  

Dump ship's entire track history